createdAt,value
2022-12-03T00:00:52.752Z,82.97
2022-12-03T00:01:52.740Z,83.15
2022-12-03T00:02:52.904Z,82.97
2022-12-03T00:03:52.832Z,83.34
2022-12-03T00:04:53.110Z,83.44
2022-12-03T00:05:52.701Z,83.53
2022-12-03T00:06:52.711Z,83.82
2022-12-03T00:07:52.748Z,83.63
2022-12-03T00:08:52.691Z,83.72
2022-12-03T00:09:52.685Z,83.25
2022-12-03T00:10:52.661Z,83.25
2022-12-03T00:11:52.656Z,83.34
2022-12-03T00:12:52.628Z,83.25
2022-12-03T00:13:52.607Z,83.15
2022-12-03T00:14:52.772Z,83.63
2022-12-03T00:15:52.657Z,83.72
2022-12-03T00:16:52.601Z,83.53
2022-12-03T00:17:52.574Z,84.01
2022-12-03T00:18:52.625Z,83.82
2022-12-03T00:19:52.580Z,83.91
2022-12-03T00:20:52.574Z,83.53
2022-12-03T00:21:52.533Z,83.53
2022-12-03T00:22:52.556Z,83.53
2022-12-03T00:23:52.521Z,83.59
2022-12-03T00:24:52.745Z,83.91
2022-12-03T00:25:52.522Z,83.72
2022-12-03T00:26:52.484Z,83.91
2022-12-03T00:27:52.469Z,84.10
2022-12-03T00:28:52.450Z,84.10
2022-12-03T00:29:52.453Z,84.20
2022-12-03T00:30:52.495Z,83.91
2022-12-03T00:31:52.461Z,84.29
2022-12-03T00:32:52.428Z,84.29
2022-12-03T00:33:52.399Z,84.01
2022-12-03T00:34:52.575Z,83.53
2022-12-03T00:35:52.382Z,83.63
2022-12-03T00:36:52.375Z,83.72
2022-12-03T00:37:52.399Z,84.29
2022-12-03T00:38:52.414Z,84.20
2022-12-03T00:39:52.375Z,84.20
2022-12-03T00:40:52.350Z,83.82
2022-12-03T00:41:52.306Z,83.63
2022-12-03T00:42:52.327Z,83.53
2022-12-03T00:43:52.294Z,83.25
2022-12-03T00:44:52.597Z,83.53
2022-12-03T00:45:52.277Z,83.15
2022-12-03T00:46:52.309Z,83.06
2022-12-03T00:47:52.266Z,83.15
2022-12-03T00:48:52.255Z,83.34
2022-12-03T00:49:52.229Z,83.25
2022-12-03T00:50:52.221Z,82.78
2022-12-03T00:51:52.225Z,83.34
2022-12-03T00:52:52.209Z,83.34
2022-12-03T00:53:52.203Z,83.06
2022-12-03T00:54:52.518Z,82.50
2022-12-03T00:55:52.181Z,82.40
2022-12-03T00:56:52.163Z,83.06
2022-12-03T00:57:52.153Z,82.21
2022-12-03T00:58:52.135Z,82.50
2022-12-03T00:59:52.143Z,82.87
2022-12-03T01:00:52.120Z,82.31
2022-12-03T01:01:52.237Z,82.68
2022-12-03T01:02:52.098Z,82.50
2022-12-03T01:03:52.101Z,82.59
2022-12-03T01:04:52.558Z,82.87
2022-12-03T01:05:52.074Z,82.21
2022-12-03T01:06:52.057Z,82.02
2022-12-03T01:07:52.098Z,82.40
2022-12-03T01:08:52.037Z,82.50
2022-12-03T01:09:52.026Z,82.31
2022-12-03T01:10:52.024Z,82.50
2022-12-03T01:11:52.067Z,82.31
2022-12-03T01:12:52.040Z,82.59
2022-12-03T01:13:51.970Z,81.93
2022-12-03T01:14:52.210Z,82.21
2022-12-03T01:15:52.030Z,82.12
2022-12-03T01:16:51.978Z,82.21
2022-12-03T01:17:51.939Z,82.68
2022-12-03T01:18:51.921Z,82.12
2022-12-03T01:19:51.937Z,82.21
2022-12-03T01:20:51.931Z,82.21
2022-12-03T01:21:51.894Z,82.21
2022-12-03T01:22:51.992Z,82.50
2022-12-03T01:23:51.875Z,82.12
2022-12-03T01:24:52.170Z,82.12
2022-12-03T01:25:51.865Z,82.12
2022-12-03T01:26:51.840Z,82.21
2022-12-03T01:27:51.827Z,82.31
2022-12-03T01:28:51.833Z,82.21
2022-12-03T01:29:51.840Z,82.12
2022-12-03T01:30:51.905Z,81.64
2022-12-03T01:31:51.808Z,82.02
2022-12-03T01:32:51.771Z,82.21
2022-12-03T01:33:51.764Z,82.21
2022-12-03T01:34:52.172Z,81.36
2022-12-03T01:35:51.809Z,81.64
2022-12-03T01:36:51.727Z,81.64
2022-12-03T01:37:51.718Z,81.74
2022-12-03T01:38:51.713Z,82.12
2022-12-03T01:39:51.713Z,82.21
2022-12-03T01:40:51.695Z,82.12
2022-12-03T01:41:51.702Z,82.02
2022-12-03T01:42:51.661Z,82.40
2022-12-03T01:43:51.663Z,82.12
2022-12-03T01:44:51.940Z,82.31
2022-12-03T01:45:51.662Z,82.31
2022-12-03T01:46:51.668Z,82.02
2022-12-03T01:47:51.631Z,81.93
2022-12-03T01:48:51.601Z,81.83
2022-12-03T01:49:51.627Z,82.12
2022-12-03T01:50:51.579Z,82.31
2022-12-03T01:51:51.573Z,82.31
2022-12-03T01:52:51.588Z,82.78
2022-12-03T01:53:51.560Z,82.31
2022-12-03T01:54:51.976Z,82.31
2022-12-03T01:55:51.525Z,82.31
2022-12-03T01:56:51.547Z,82.31
2022-12-03T01:57:51.517Z,82.12
2022-12-03T01:58:51.527Z,82.12
2022-12-03T01:59:51.577Z,82.12
2022-12-03T02:00:51.471Z,82.21
2022-12-03T02:01:51.571Z,82.02
2022-12-03T02:02:51.477Z,81.93
2022-12-03T02:03:51.534Z,81.74
2022-12-03T02:04:51.691Z,82.02
2022-12-03T02:05:51.427Z,82.21
2022-12-03T02:06:51.404Z,81.74
2022-12-03T02:07:51.468Z,81.26
2022-12-03T02:08:51.419Z,82.12
2022-12-03T02:09:51.404Z,82.02
2022-12-03T02:10:52.092Z,81.74
2022-12-03T02:11:51.357Z,81.36
2022-12-03T02:12:51.350Z,82.12
2022-12-03T02:13:51.364Z,82.21
2022-12-03T02:14:51.625Z,81.55
2022-12-03T02:15:51.367Z,81.74
2022-12-03T02:16:51.306Z,81.45
2022-12-03T02:17:51.299Z,81.45
2022-12-03T02:18:51.291Z,81.45
2022-12-03T02:19:51.289Z,82.21
2022-12-03T02:20:51.263Z,82.21
2022-12-03T02:21:51.271Z,81.93
2022-12-03T02:22:51.263Z,81.07
2022-12-03T02:23:51.224Z,81.17
2022-12-03T02:24:51.561Z,81.55
2022-12-03T02:25:51.238Z,81.64
2022-12-03T02:26:51.203Z,82.02
2022-12-03T02:27:51.193Z,82.02
2022-12-03T02:28:51.170Z,81.93
2022-12-03T02:29:51.221Z,81.93
2022-12-03T02:30:51.161Z,82.12
2022-12-03T02:31:51.208Z,81.74
2022-12-03T02:32:51.160Z,82.12
2022-12-03T02:33:51.143Z,82.12
2022-12-03T02:34:51.446Z,82.31
2022-12-03T02:35:51.101Z,82.31
2022-12-03T02:36:51.103Z,81.93
2022-12-03T02:37:51.079Z,81.83
2022-12-03T02:38:51.071Z,82.12
2022-12-03T02:39:51.104Z,82.31
2022-12-03T02:40:51.045Z,82.12
2022-12-03T02:41:51.045Z,82.31
2022-12-03T02:42:51.040Z,82.12
2022-12-03T02:43:51.048Z,82.21
2022-12-03T02:44:51.225Z,82.21
2022-12-03T02:45:50.996Z,82.12
2022-12-03T02:46:51.025Z,81.93
2022-12-03T02:47:50.976Z,82.12
2022-12-03T02:48:50.959Z,82.21
2022-12-03T02:49:50.968Z,82.02
2022-12-03T02:50:50.944Z,81.26
2022-12-03T02:51:50.930Z,81.93
2022-12-03T02:52:50.913Z,81.83
2022-12-03T02:53:50.910Z,81.26
2022-12-03T02:54:51.476Z,81.64
2022-12-03T02:55:50.887Z,81.45
2022-12-03T02:56:50.876Z,81.17
2022-12-03T02:57:50.868Z,81.45
2022-12-03T02:58:50.857Z,81.55
2022-12-03T02:59:50.845Z,81.26
2022-12-03T03:00:50.883Z,81.55
2022-12-03T03:01:50.860Z,81.26
2022-12-03T03:02:50.820Z,81.55
2022-12-03T03:03:50.804Z,81.45
2022-12-03T03:04:51.013Z,81.36
2022-12-03T03:05:50.789Z,81.36
2022-12-03T03:06:50.824Z,81.45
2022-12-03T03:07:50.848Z,81.64
2022-12-03T03:08:50.816Z,82.12
2022-12-03T03:09:50.745Z,81.93
2022-12-03T03:10:50.726Z,82.02
2022-12-03T03:11:50.736Z,81.93
2022-12-03T03:12:50.726Z,82.31
2022-12-03T03:13:50.701Z,82.02
2022-12-03T03:14:50.978Z,81.93
2022-12-03T03:15:50.678Z,82.02
2022-12-03T03:16:50.698Z,81.26
2022-12-03T03:17:50.657Z,81.36
2022-12-03T03:18:50.649Z,81.36
2022-12-03T03:19:50.652Z,81.17
2022-12-03T03:20:50.636Z,81.17
2022-12-03T03:21:50.620Z,81.45
2022-12-03T03:22:50.605Z,81.45
2022-12-03T03:23:50.595Z,82.21
2022-12-03T03:24:50.896Z,81.64
2022-12-03T03:25:50.579Z,81.83
2022-12-03T03:26:50.598Z,82.21
2022-12-03T03:27:50.602Z,81.93
2022-12-03T03:28:50.544Z,82.02
2022-12-03T03:29:50.533Z,81.64
2022-12-03T03:30:50.520Z,81.93
2022-12-03T03:31:50.575Z,81.93
2022-12-03T03:32:50.496Z,81.93
2022-12-03T03:33:50.485Z,81.83
2022-12-03T03:34:50.604Z,81.88
2022-12-03T03:35:50.460Z,81.93
2022-12-03T03:36:50.467Z,82.02
2022-12-03T03:37:50.556Z,82.40
2022-12-03T03:38:50.424Z,82.40
2022-12-03T03:39:50.415Z,82.40
2022-12-03T03:40:50.424Z,81.98
2022-12-03T03:41:50.451Z,82.02
2022-12-03T03:42:50.389Z,81.93
2022-12-03T03:43:50.401Z,81.74
2022-12-03T03:44:50.602Z,82.02
2022-12-03T03:45:50.398Z,82.35
2022-12-03T03:46:50.342Z,82.12
2022-12-03T03:47:50.331Z,82.02
2022-12-03T03:48:50.321Z,82.12
2022-12-03T03:49:50.314Z,81.93
2022-12-03T03:50:50.309Z,81.93
2022-12-03T03:51:50.288Z,81.83
2022-12-03T03:52:50.287Z,81.93
2022-12-03T03:53:50.283Z,81.93
2022-12-03T03:54:50.331Z,82.12
2022-12-03T03:55:50.253Z,82.21
2022-12-03T03:56:50.243Z,81.93
2022-12-03T03:57:50.229Z,82.21
2022-12-03T03:58:50.244Z,81.93
2022-12-03T03:59:50.210Z,82.12
2022-12-03T04:00:50.245Z,81.74
2022-12-03T04:01:50.193Z,81.55
2022-12-03T04:02:50.182Z,81.07
2022-12-03T04:03:50.203Z,81.26
2022-12-03T04:04:50.257Z,81.55
2022-12-03T04:05:50.164Z,81.55
2022-12-03T04:06:50.124Z,81.36
2022-12-03T04:07:50.167Z,81.55
2022-12-03T04:08:50.111Z,81.26
2022-12-03T04:09:50.122Z,81.64
2022-12-03T04:10:50.086Z,81.74
2022-12-03T04:11:50.092Z,81.45
2022-12-03T04:12:50.065Z,81.36
2022-12-03T04:13:50.057Z,81.36
2022-12-03T04:14:50.178Z,81.17
2022-12-03T04:15:50.055Z,81.17
2022-12-03T04:16:50.119Z,81.64
2022-12-03T04:17:50.008Z,81.26
2022-12-03T04:18:50.000Z,82.12
2022-12-03T04:19:50.065Z,81.64
2022-12-03T04:20:50.010Z,81.45
2022-12-03T04:21:49.973Z,81.36
2022-12-03T04:22:49.968Z,81.64
2022-12-03T04:23:49.948Z,81.64
2022-12-03T04:24:49.936Z,81.55
2022-12-03T04:25:49.937Z,81.36
2022-12-03T04:26:49.907Z,81.88
2022-12-03T04:27:49.918Z,82.12
2022-12-03T04:28:49.905Z,81.88
2022-12-03T04:29:49.877Z,82.21
2022-12-03T04:30:49.976Z,82.31
2022-12-03T04:31:49.870Z,82.21
2022-12-03T04:32:49.847Z,82.02
2022-12-03T04:33:49.898Z,81.93
2022-12-03T04:34:49.834Z,81.93
2022-12-03T04:35:49.896Z,82.02
2022-12-03T04:36:49.801Z,81.93
2022-12-03T04:37:49.794Z,82.21
2022-12-03T04:38:49.798Z,82.21
2022-12-03T04:39:49.781Z,82.12
2022-12-03T04:40:49.767Z,82.21
2022-12-03T04:41:49.787Z,82.12
2022-12-03T04:42:49.740Z,82.02
2022-12-03T04:43:49.728Z,82.02
2022-12-03T04:44:49.745Z,81.64
2022-12-03T04:45:49.778Z,81.93
2022-12-03T04:46:49.691Z,81.93
2022-12-03T04:47:49.682Z,82.02
2022-12-03T04:48:49.676Z,82.12
2022-12-03T04:49:49.691Z,82.31
2022-12-03T04:50:49.659Z,82.21
2022-12-03T04:51:49.656Z,82.12
2022-12-03T04:52:49.631Z,82.68
2022-12-03T04:53:49.673Z,82.21
2022-12-03T04:54:49.615Z,82.31
2022-12-03T04:55:49.606Z,82.12
2022-12-03T04:56:49.599Z,82.12
2022-12-03T04:57:49.580Z,82.02
2022-12-03T04:58:49.568Z,82.02
2022-12-03T04:59:49.554Z,82.12
2022-12-03T05:00:49.586Z,82.21
2022-12-03T05:01:49.626Z,81.83
2022-12-03T05:02:49.687Z,82.31
2022-12-03T05:03:49.530Z,82.40
2022-12-03T05:04:49.501Z,82.50
2022-12-03T05:05:49.528Z,82.68
2022-12-03T05:06:49.513Z,82.59
2022-12-03T05:07:49.533Z,82.78
2022-12-03T05:08:49.462Z,82.78
2022-12-03T05:09:49.457Z,82.12
2022-12-03T05:10:49.458Z,82.12
2022-12-03T05:11:49.431Z,82.12
2022-12-03T05:12:49.436Z,82.12
2022-12-03T05:13:49.449Z,82.31
2022-12-03T05:14:49.415Z,82.31
2022-12-03T05:15:49.380Z,82.12
2022-12-03T05:16:49.433Z,82.31
2022-12-03T05:17:49.370Z,82.59
2022-12-03T05:18:49.365Z,82.21
2022-12-03T05:19:49.358Z,82.21
2022-12-03T05:20:53.297Z,82.21
2022-12-03T05:21:49.320Z,82.12
2022-12-03T05:22:49.315Z,82.68
2022-12-03T05:23:49.301Z,82.50
2022-12-03T05:24:49.319Z,82.50
2022-12-03T05:25:49.284Z,82.21
2022-12-03T05:26:49.306Z,82.68
2022-12-03T05:27:49.259Z,82.68
2022-12-03T05:28:49.253Z,82.40
2022-12-03T05:29:49.244Z,82.59
2022-12-03T05:30:49.299Z,82.31
2022-12-03T05:31:49.228Z,82.59
2022-12-03T05:32:49.207Z,82.68
2022-12-03T05:33:49.197Z,82.83
2022-12-03T05:34:49.188Z,83.44
2022-12-03T05:35:49.180Z,83.25
2022-12-03T05:36:49.174Z,83.25
2022-12-03T05:37:49.187Z,82.97
2022-12-03T05:38:49.146Z,83.44
2022-12-03T05:39:49.130Z,83.63
2022-12-03T05:40:49.140Z,83.44
2022-12-03T05:41:49.140Z,83.63
2022-12-03T05:42:49.119Z,84.01
2022-12-03T05:43:49.100Z,84.95
2022-12-03T05:44:49.081Z,84.39
2022-12-03T05:45:49.165Z,84.58
2022-12-03T05:46:49.059Z,84.29
2022-12-03T05:47:49.069Z,84.01
2022-12-03T05:48:49.057Z,84.10
2022-12-03T05:49:49.033Z,84.29
2022-12-03T05:50:49.011Z,84.10
2022-12-03T05:51:52.475Z,84.06
2022-12-03T05:52:49.003Z,84.48
2022-12-03T05:53:48.987Z,84.48
2022-12-03T05:54:48.982Z,85.33
2022-12-03T05:55:48.966Z,85.52
2022-12-03T05:56:49.027Z,85.76
2022-12-03T05:57:48.953Z,85.80
2022-12-03T05:58:48.931Z,85.80
2022-12-03T05:59:48.934Z,86.09
2022-12-03T06:00:48.933Z,86.09
2022-12-03T06:01:48.886Z,85.80
2022-12-03T06:02:49.004Z,85.90
2022-12-03T06:03:49.044Z,85.99
2022-12-03T06:04:48.863Z,86.56
2022-12-03T06:05:48.873Z,86.94
2022-12-03T06:06:48.853Z,86.94
2022-12-03T06:07:48.892Z,86.85
2022-12-03T06:08:48.818Z,86.85
2022-12-03T06:09:48.807Z,86.85
2022-12-03T06:10:48.802Z,86.94
2022-12-03T06:11:48.784Z,87.51
2022-12-03T06:12:48.801Z,87.23
2022-12-03T06:13:48.818Z,87.23
2022-12-03T06:14:48.760Z,87.13
2022-12-03T06:15:48.792Z,87.23
2022-12-03T06:16:48.739Z,87.88
2022-12-03T06:17:48.746Z,88.07
2022-12-03T06:18:48.777Z,87.70
2022-12-03T06:19:48.702Z,87.41
2022-12-03T06:20:48.687Z,87.88
2022-12-03T06:21:48.711Z,87.88
2022-12-03T06:22:48.693Z,88.07
2022-12-03T06:23:48.658Z,87.88
2022-12-03T06:24:48.663Z,88.45
2022-12-03T06:25:48.657Z,88.17
2022-12-03T06:26:48.640Z,88.36
2022-12-03T06:27:48.608Z,88.55
2022-12-03T06:28:48.618Z,88.45
2022-12-03T06:29:48.606Z,88.45
2022-12-03T06:30:48.711Z,88.55
2022-12-03T06:31:48.574Z,88.45
2022-12-03T06:32:48.569Z,88.93
2022-12-03T06:33:48.566Z,89.02
2022-12-03T06:34:48.549Z,89.02
2022-12-03T06:35:48.539Z,89.31
2022-12-03T06:36:48.549Z,89.31
2022-12-03T06:37:48.519Z,88.93
2022-12-03T06:38:48.510Z,89.12
2022-12-03T06:39:48.484Z,89.12
2022-12-03T06:40:48.483Z,89.21
2022-12-03T06:41:48.466Z,89.12
2022-12-03T06:42:48.461Z,89.40
2022-12-03T06:43:48.446Z,89.21
2022-12-03T06:44:48.432Z,89.02
2022-12-03T06:45:48.426Z,89.59
2022-12-03T06:46:48.433Z,89.50
2022-12-03T06:47:48.397Z,89.12
2022-12-03T06:48:48.391Z,89.50
2022-12-03T06:49:48.435Z,89.59
2022-12-03T06:50:48.378Z,89.40
2022-12-03T06:51:48.422Z,89.69
2022-12-03T06:52:48.368Z,89.59
2022-12-03T06:53:48.354Z,89.50
2022-12-03T06:54:48.347Z,89.40
2022-12-03T06:55:48.315Z,89.40
2022-12-03T06:56:48.308Z,89.40
2022-12-03T06:57:48.300Z,89.21
2022-12-03T06:58:48.289Z,89.50
2022-12-03T06:59:48.270Z,89.69
2022-12-03T07:00:48.292Z,89.69
2022-12-03T07:01:48.317Z,90.06
2022-12-03T07:02:48.348Z,90.20
2022-12-03T07:03:48.230Z,90.25
2022-12-03T07:04:48.239Z,90.58
2022-12-03T07:05:48.228Z,90.39
2022-12-03T07:06:48.205Z,90.49
2022-12-03T07:07:48.260Z,90.96
2022-12-03T07:08:48.187Z,91.05
2022-12-03T07:09:48.282Z,90.86
2022-12-03T07:10:48.164Z,91.05
2022-12-03T07:11:48.155Z,91.15
2022-12-03T07:12:48.139Z,90.58
2022-12-03T07:13:48.157Z,91.53
2022-12-03T07:14:48.128Z,91.34
2022-12-03T07:15:48.136Z,91.24
2022-12-03T07:16:48.160Z,91.53
2022-12-03T07:17:48.082Z,91.43
2022-12-03T07:18:48.085Z,91.05
2022-12-03T07:19:48.060Z,90.86
2022-12-03T07:20:48.087Z,91.81
2022-12-03T07:21:48.034Z,91.91
2022-12-03T07:22:48.045Z,91.43
2022-12-03T07:23:48.024Z,91.62
2022-12-03T07:24:48.007Z,91.91
2022-12-03T07:25:47.995Z,91.72
2022-12-03T07:26:47.992Z,91.43
2022-12-03T07:27:47.988Z,91.81
2022-12-03T07:28:47.967Z,92.29
2022-12-03T07:29:47.968Z,91.91
2022-12-03T07:30:47.958Z,91.91
2022-12-03T07:31:48.036Z,91.91
2022-12-03T07:32:47.933Z,91.91
2022-12-03T07:33:47.922Z,92.00
2022-12-03T07:34:47.900Z,91.43
2022-12-03T07:35:47.887Z,91.43
2022-12-03T07:36:47.875Z,92.29
2022-12-03T07:37:47.908Z,91.91
2022-12-03T07:38:47.867Z,92.00
2022-12-03T07:39:47.853Z,91.91
2022-12-03T07:40:47.887Z,92.00
2022-12-03T07:41:47.838Z,92.00
2022-12-03T07:42:47.824Z,92.00
2022-12-03T07:43:47.851Z,91.81
2022-12-03T07:44:47.805Z,92.90
2022-12-03T07:45:47.782Z,92.85
2022-12-03T07:46:47.961Z,91.91
2022-12-03T07:47:47.758Z,92.10
2022-12-03T07:48:47.747Z,92.10
2022-12-03T07:49:47.737Z,91.81
2022-12-03T07:50:47.741Z,92.14
2022-12-03T07:51:47.717Z,92.24
2022-12-03T07:52:47.722Z,92.14
2022-12-03T07:53:47.710Z,91.77
2022-12-03T07:54:47.685Z,91.29
2022-12-03T07:55:47.698Z,90.91
2022-12-03T07:56:47.664Z,91.20
2022-12-03T07:57:47.652Z,91.10
2022-12-03T07:58:47.662Z,91.05
2022-12-03T07:59:47.635Z,90.58
2022-12-03T08:00:47.748Z,90.30
2022-12-03T08:01:47.692Z,90.20
2022-12-03T08:02:47.700Z,90.58
2022-12-03T08:03:47.589Z,90.30
2022-12-03T08:04:47.623Z,90.39
2022-12-03T08:05:47.600Z,90.49
2022-12-03T08:06:47.604Z,90.49
2022-12-03T08:07:47.616Z,90.11
2022-12-03T08:08:47.535Z,90.58
2022-12-03T08:09:47.515Z,90.58
2022-12-03T08:10:47.517Z,90.77
2022-12-03T08:11:47.496Z,90.77
2022-12-03T08:12:47.489Z,90.86
2022-12-03T08:13:47.479Z,90.96
2022-12-03T08:14:47.483Z,90.77
2022-12-03T08:15:47.476Z,91.43
2022-12-03T08:16:47.532Z,91.34
2022-12-03T08:17:47.446Z,91.15
2022-12-03T08:18:47.431Z,91.15
2022-12-03T08:19:47.410Z,91.15
2022-12-03T08:20:47.444Z,91.24
2022-12-03T08:21:47.397Z,91.05
2022-12-03T08:22:47.491Z,91.24
2022-12-03T08:23:47.388Z,91.81
2022-12-03T08:24:47.374Z,91.43
2022-12-03T08:25:47.383Z,92.19
2022-12-03T08:26:47.884Z,92.19
2022-12-03T08:27:47.335Z,92.00
2022-12-03T08:28:47.334Z,91.72
2022-12-03T08:29:47.320Z,92.00
2022-12-03T08:30:47.297Z,92.38
2022-12-03T08:31:47.329Z,92.38
2022-12-03T08:32:47.288Z,92.94
2022-12-03T08:33:47.261Z,92.57
2022-12-03T08:34:47.276Z,92.66
2022-12-03T08:35:47.238Z,92.76
2022-12-03T08:36:47.239Z,92.57
2022-12-03T08:37:47.268Z,93.23
2022-12-03T08:38:47.232Z,93.23
2022-12-03T08:39:47.208Z,92.76
2022-12-03T08:40:47.200Z,92.85
2022-12-03T08:41:47.194Z,92.85
2022-12-03T08:42:47.170Z,92.85
2022-12-03T08:43:47.161Z,92.76
2022-12-03T08:44:47.292Z,92.76
2022-12-03T08:45:47.213Z,92.66
2022-12-03T08:46:47.143Z,92.76
2022-12-03T08:47:47.111Z,92.66
2022-12-03T08:48:49.424Z,93.04
2022-12-03T08:49:47.090Z,92.94
2022-12-03T08:50:47.102Z,92.76
2022-12-03T08:51:47.076Z,92.85
2022-12-03T08:52:47.070Z,92.66
2022-12-03T08:53:47.044Z,92.76
2022-12-03T08:54:47.052Z,92.85
2022-12-03T08:55:47.040Z,92.94
2022-12-03T08:56:47.019Z,92.94
2022-12-03T08:57:47.008Z,92.66
2022-12-03T08:58:47.009Z,92.85
2022-12-03T08:59:47.000Z,93.23
2022-12-03T09:00:46.992Z,93.23
2022-12-03T09:01:47.003Z,93.23
2022-12-03T09:02:46.953Z,93.04
2022-12-03T09:03:47.013Z,92.85
2022-12-03T09:04:46.930Z,92.85
2022-12-03T09:05:46.935Z,93.13
2022-12-03T09:06:46.918Z,92.76
2022-12-03T09:07:46.952Z,92.57
2022-12-03T09:08:46.885Z,92.76
2022-12-03T09:09:46.894Z,92.94
2022-12-03T09:10:46.875Z,93.23
2022-12-03T09:11:46.871Z,93.23
2022-12-03T09:12:46.863Z,93.23
2022-12-03T09:13:46.831Z,93.32
2022-12-03T09:14:46.822Z,93.13
2022-12-03T09:15:46.822Z,92.85
2022-12-03T09:16:46.927Z,93.61
2022-12-03T09:17:46.794Z,93.23
2022-12-03T09:18:46.811Z,93.13
2022-12-03T09:19:46.770Z,93.04
2022-12-03T09:20:46.771Z,93.13
2022-12-03T09:21:46.760Z,93.04
2022-12-03T09:22:46.752Z,93.61
2022-12-03T09:23:46.729Z,93.13
2022-12-03T09:24:46.722Z,92.94
2022-12-03T09:25:46.722Z,92.90
2022-12-03T09:26:46.701Z,92.85
2022-12-03T09:27:46.695Z,93.04
2022-12-03T09:28:46.673Z,92.76
2022-12-03T09:29:46.685Z,93.80
2022-12-03T09:30:46.682Z,92.76
2022-12-03T09:31:46.738Z,92.85
2022-12-03T09:32:46.662Z,93.09
2022-12-03T09:33:46.631Z,92.94
2022-12-03T09:34:46.628Z,92.80
2022-12-03T09:35:46.629Z,93.70
2022-12-03T09:36:46.603Z,92.57
2022-12-03T09:37:46.584Z,92.80
2022-12-03T09:38:48.246Z,93.23
2022-12-03T09:39:46.590Z,92.94
2022-12-03T09:40:46.562Z,93.13
2022-12-03T09:41:46.556Z,93.13
2022-12-03T09:42:46.532Z,93.18
2022-12-03T09:44:03.373Z,93.09
2022-12-03T09:44:46.525Z,92.57
2022-12-03T09:45:46.552Z,92.80
2022-12-03T09:46:46.502Z,92.90
2022-12-03T09:47:46.519Z,93.28
2022-12-03T09:48:46.486Z,92.80
2022-12-03T09:49:46.491Z,92.99
2022-12-03T09:50:46.474Z,93.09
2022-12-03T09:51:46.443Z,92.66
2022-12-03T09:52:46.449Z,92.57
2022-12-03T09:53:46.424Z,92.57
2022-12-03T09:54:52.022Z,93.13
2022-12-03T09:55:46.409Z,93.13
2022-12-03T09:56:46.396Z,92.66
2022-12-03T09:57:46.375Z,93.04
2022-12-03T09:58:46.366Z,93.04
2022-12-03T09:59:46.374Z,93.04
2022-12-03T10:00:46.337Z,93.61
2022-12-03T10:01:46.394Z,93.04
2022-12-03T10:02:46.334Z,93.04
2022-12-03T10:03:46.309Z,93.04
2022-12-03T10:04:46.402Z,93.04
2022-12-03T10:05:48.230Z,93.28
2022-12-03T10:06:46.529Z,92.80
2022-12-03T10:07:46.380Z,92.94
2022-12-03T10:08:46.275Z,93.28
2022-12-03T10:09:46.251Z,92.90
2022-12-03T10:10:46.244Z,93.18
2022-12-03T10:11:46.249Z,92.80
2022-12-03T10:12:46.224Z,93.28
2022-12-03T10:13:46.211Z,93.23
2022-12-03T10:14:46.209Z,93.04
2022-12-03T10:15:46.231Z,93.04
2022-12-03T10:16:46.309Z,93.04
2022-12-03T10:17:46.165Z,92.99
2022-12-03T10:18:46.189Z,93.85
2022-12-03T10:19:46.162Z,92.76
2022-12-03T10:20:46.166Z,93.09
2022-12-03T10:21:46.142Z,92.66
2022-12-03T10:22:46.118Z,92.57
2022-12-03T10:23:48.350Z,92.61
2022-12-03T10:24:46.122Z,92.80
2022-12-03T10:25:46.090Z,92.85
2022-12-03T10:26:46.085Z,92.57
2022-12-03T10:27:46.071Z,93.09
2022-12-03T10:28:46.088Z,92.99
2022-12-03T10:29:46.063Z,93.32
2022-12-03T10:30:46.054Z,93.28
2022-12-03T10:31:46.016Z,92.99
2022-12-03T10:32:46.012Z,93.18
2022-12-03T10:33:46.027Z,92.76
2022-12-03T10:34:45.993Z,92.80
2022-12-03T10:35:46.020Z,92.94
2022-12-03T10:36:45.982Z,92.80
2022-12-03T10:37:45.967Z,92.80
2022-12-03T10:38:45.945Z,92.80
2022-12-03T10:39:47.987Z,92.19
2022-12-03T10:40:45.988Z,92.94
2022-12-03T10:41:45.929Z,92.90
2022-12-03T10:42:45.902Z,92.85
2022-12-03T10:43:45.894Z,92.57
2022-12-03T10:44:45.888Z,92.90
2022-12-03T10:45:45.954Z,92.85
2022-12-03T10:46:46.036Z,92.99
2022-12-03T10:47:45.983Z,92.80
2022-12-03T10:48:45.846Z,91.91
2022-12-03T10:49:45.837Z,92.33
2022-12-03T10:50:45.845Z,92.05
2022-12-03T10:51:45.857Z,92.05
2022-12-03T10:52:45.802Z,92.00
2022-12-03T10:53:46.325Z,92.05
2022-12-03T10:54:45.774Z,91.81
2022-12-03T10:55:45.762Z,92.29
2022-12-03T10:56:45.783Z,92.14
2022-12-03T10:57:46.383Z,92.66
2022-12-03T10:58:45.757Z,92.76
2022-12-03T10:59:45.723Z,92.85
2022-12-03T11:00:45.705Z,92.80
2022-12-03T11:01:45.916Z,92.71
2022-12-03T11:02:45.698Z,92.80
2022-12-03T11:03:45.737Z,92.90
2022-12-03T11:04:45.668Z,92.52
2022-12-03T11:05:45.659Z,92.80
2022-12-03T11:06:45.657Z,93.18
2022-12-03T11:07:45.696Z,92.99
2022-12-03T11:08:45.614Z,93.09
2022-12-03T11:09:45.600Z,92.99
2022-12-03T11:10:45.622Z,92.80
2022-12-03T11:11:45.598Z,92.90
2022-12-03T11:12:45.589Z,92.43
2022-12-03T11:13:45.599Z,92.24
2022-12-03T11:14:45.593Z,92.43
2022-12-03T11:15:45.591Z,92.52
2022-12-03T11:16:46.319Z,92.14
2022-12-03T11:17:45.523Z,92.24
2022-12-03T11:18:45.519Z,92.14
2022-12-03T11:19:48.365Z,92.99
2022-12-03T11:20:45.493Z,92.80
2022-12-03T11:21:45.497Z,92.80
2022-12-03T11:22:45.467Z,92.99
2022-12-03T11:23:45.541Z,92.61
2022-12-03T11:24:45.503Z,92.99
2022-12-03T11:25:45.467Z,92.90
2022-12-03T11:26:45.427Z,92.43
2022-12-03T11:27:45.436Z,92.24
2022-12-03T11:28:45.423Z,91.96
2022-12-03T11:29:45.412Z,92.05
2022-12-03T11:30:45.468Z,92.05
2022-12-03T11:31:45.607Z,91.96
2022-12-03T11:32:45.370Z,91.96
2022-12-03T11:33:45.523Z,92.33
2022-12-03T11:34:45.350Z,92.24
2022-12-03T11:35:45.352Z,92.90
2022-12-03T11:37:01.112Z,92.80
2022-12-03T11:37:45.349Z,93.18
2022-12-03T11:38:52.146Z,93.28
2022-12-03T11:39:45.292Z,93.09
2022-12-03T11:40:45.288Z,93.09
2022-12-03T11:41:45.281Z,92.61
2022-12-03T11:42:45.272Z,92.61
2022-12-03T11:43:45.243Z,92.43
2022-12-03T11:44:45.269Z,92.33
2022-12-03T11:45:45.227Z,92.52
2022-12-03T11:46:45.285Z,92.05
2022-12-03T11:47:45.212Z,91.96
2022-12-03T11:48:45.200Z,92.05
2022-12-03T11:49:45.187Z,91.48
2022-12-03T11:50:45.192Z,91.29
2022-12-03T11:51:45.179Z,91.58
2022-12-03T11:52:45.216Z,91.58
2022-12-03T11:53:45.160Z,90.91
2022-12-03T11:54:45.168Z,90.82
2022-12-03T11:55:45.130Z,91.01
2022-12-03T11:56:45.160Z,90.82
2022-12-03T11:57:45.101Z,90.91
2022-12-03T11:58:45.159Z,90.91
2022-12-03T11:59:45.087Z,91.01
2022-12-03T12:00:45.101Z,91.29
2022-12-03T12:01:45.075Z,91.58
2022-12-03T12:02:45.059Z,91.29
2022-12-03T12:03:45.226Z,90.82
2022-12-03T12:04:45.054Z,90.63
2022-12-03T12:05:45.034Z,90.53
2022-12-03T12:06:47.439Z,90.63
2022-12-03T12:07:45.071Z,90.25
2022-12-03T12:08:44.985Z,91.20
2022-12-03T12:09:44.990Z,90.72
2022-12-03T12:10:44.976Z,90.63
2022-12-03T12:11:44.976Z,90.63
2022-12-03T12:12:53.272Z,90.44
2022-12-03T12:13:44.978Z,90.63
2022-12-03T12:14:44.928Z,90.44
2022-12-03T12:15:44.962Z,90.44
2022-12-03T12:16:45.072Z,90.72
2022-12-03T12:17:44.897Z,90.72
2022-12-03T12:18:44.892Z,91.29
2022-12-03T12:19:47.326Z,90.82
2022-12-03T12:20:44.869Z,91.01
2022-12-03T12:21:44.862Z,91.10
2022-12-03T12:22:44.848Z,90.72
2022-12-03T12:23:44.850Z,91.10
2022-12-03T12:24:44.825Z,91.01
2022-12-03T12:25:48.250Z,91.10
2022-12-03T12:26:44.809Z,91.29
2022-12-03T12:27:44.806Z,90.82
2022-12-03T12:28:44.784Z,90.34
2022-12-03T12:29:44.780Z,90.06
2022-12-03T12:30:44.759Z,90.44
2022-12-03T12:31:47.331Z,90.25
2022-12-03T12:32:44.754Z,90.53
2022-12-03T12:33:44.738Z,90.16
2022-12-03T12:34:44.741Z,90.16
2022-12-03T12:35:44.721Z,90.44
2022-12-03T12:36:44.704Z,90.82
2022-12-03T12:37:47.318Z,90.72
2022-12-03T12:38:44.690Z,91.20
2022-12-03T12:39:44.677Z,91.01
2022-12-03T12:40:44.676Z,90.63
2022-12-03T12:41:44.669Z,90.25
2022-12-03T12:42:44.636Z,89.97
2022-12-03T12:43:44.636Z,90.25
2022-12-03T12:44:44.629Z,89.87
2022-12-03T12:45:44.643Z,90.06
2022-12-03T12:46:48.716Z,89.97
2022-12-03T12:47:44.693Z,90.34
2022-12-03T12:48:44.588Z,90.34
2022-12-03T12:49:48.700Z,90.72
2022-12-03T12:50:44.567Z,91.39
2022-12-03T12:51:44.616Z,91.29
2022-12-03T12:52:44.605Z,91.10